createdAt,value
2018-11-22T12:18:06.921Z,5.40
2018-11-22T12:20:39.173Z,5.40
2018-11-22T12:23:08.142Z,5.50
2018-11-22T12:25:38.481Z,5.50
2018-11-22T12:28:07.465Z,5.40
2018-11-22T12:30:36.495Z,5.40
2018-11-22T12:33:20.851Z,5.40
2018-11-22T12:35:56.306Z,5.40
2018-11-22T12:38:30.648Z,5.40
2018-11-22T12:41:00.886Z,5.40
2018-11-22T12:43:29.969Z,5.40
2018-11-22T12:45:58.988Z,5.50
2018-11-22T12:48:28.032Z,5.50
2018-11-22T12:50:57.074Z,5.50
2018-11-22T12:53:27.506Z,5.50
2018-11-22T12:55:56.494Z,5.50
2018-11-22T12:58:26.216Z,5.50
2018-11-22T13:00:55.295Z,5.50
2018-11-22T13:03:24.666Z,5.50
2018-11-22T13:05:53.935Z,5.50
2018-11-22T13:08:23.253Z,5.40
2018-11-22T13:10:52.251Z,5.30
2018-11-22T13:13:21.439Z,5.30
2018-11-22T13:15:50.904Z,5.20
2018-11-22T13:18:19.962Z,5.20
2018-11-22T13:20:49.222Z,5.10
2018-11-22T13:23:18.296Z,5.00
2018-11-22T13:25:48.568Z,4.90
2018-11-22T13:28:17.864Z,4.90
2018-11-22T13:30:47.201Z,4.80
2018-11-22T13:33:16.202Z,4.80
2018-11-22T13:35:45.364Z,4.80
2018-11-22T13:38:14.911Z,4.70
2018-11-22T13:40:44.191Z,4.70
2018-11-22T13:43:14.090Z,4.70
2018-11-22T13:45:44.408Z,4.70
2018-11-22T13:48:13.654Z,4.60
2018-11-22T13:50:43.328Z,4.60
2018-11-22T13:53:12.478Z,4.60
2018-11-22T13:55:41.568Z,4.50
2018-11-22T13:58:10.766Z,4.50
2018-11-22T14:00:39.802Z,4.50
2018-11-22T14:03:09.015Z,4.50
2018-11-22T14:05:38.102Z,4.40
2018-11-22T14:08:08.246Z,4.40
2018-11-22T14:10:37.371Z,4.40
2018-11-22T14:13:06.542Z,4.30
2018-11-22T14:15:35.610Z,4.30
2018-11-22T14:18:05.887Z,4.30
2018-11-22T14:20:35.851Z,4.20
2018-11-22T14:23:05.503Z,4.20
2018-11-22T14:25:34.556Z,4.20
2018-11-22T14:28:05.368Z,4.30
2018-11-22T14:30:35.452Z,4.20
2018-11-22T14:33:04.818Z,4.20
2018-11-22T14:35:33.892Z,4.20
2018-11-22T14:38:03.080Z,4.30
2018-11-22T14:40:33.138Z,4.30
2018-11-22T14:43:02.254Z,4.40
2018-11-22T14:45:31.655Z,4.30
2018-11-22T14:48:02.270Z,4.30
2018-11-22T14:50:39.809Z,4.30
2018-11-22T14:53:14.475Z,4.20
2018-11-22T14:55:43.600Z,4.20
2018-11-22T14:58:12.644Z,4.20
2018-11-22T15:00:41.650Z,4.10
2018-11-22T15:03:10.748Z,4.00
2018-11-22T15:05:39.802Z,4.00
2018-11-22T15:08:09.495Z,4.00
2018-11-22T15:10:39.777Z,3.90
2018-11-22T15:13:08.764Z,3.80
2018-11-22T15:15:37.725Z,3.80
2018-11-22T15:18:06.793Z,3.80
2018-11-22T15:20:35.796Z,3.70
2018-11-22T15:23:04.988Z,3.70
2018-11-22T15:25:33.961Z,3.70
2018-11-22T15:28:03.806Z,3.70
2018-11-22T15:30:32.907Z,3.70
2018-11-22T15:33:01.889Z,3.70
2018-11-22T15:35:31.387Z,3.60
2018-11-22T15:38:01.153Z,3.60
2018-11-22T15:40:30.124Z,3.60
2018-11-22T15:43:01.643Z,3.50
2018-11-22T15:45:37.411Z,3.40
2018-11-22T15:48:07.193Z,3.30
2018-11-22T15:50:36.382Z,3.30
2018-11-22T15:53:06.244Z,3.20
2018-11-22T15:55:35.330Z,3.10
2018-11-22T15:58:04.308Z,3.10
2018-11-22T16:00:34.533Z,3.00
2018-11-22T16:03:04.034Z,3.00
2018-11-22T16:05:33.429Z,3.00
2018-11-22T16:08:02.459Z,2.90
2018-11-22T16:10:34.575Z,2.90
2018-11-22T16:13:11.992Z,2.90
2018-11-22T16:15:46.332Z,2.90
2018-11-22T16:18:15.452Z,2.90
2018-11-22T16:20:44.631Z,2.90
2018-11-22T16:23:14.115Z,2.90
2018-11-22T16:25:43.084Z,3.00
2018-11-22T16:28:12.046Z,2.90
2018-11-22T16:30:41.890Z,2.90
2018-11-22T16:33:10.855Z,3.00
2018-11-22T16:35:41.045Z,3.00
2018-11-22T16:38:09.993Z,3.00
2018-11-22T16:40:39.783Z,3.00
2018-11-22T16:43:08.772Z,3.00
2018-11-22T16:45:39.016Z,3.00
2018-11-22T16:48:09.640Z,3.00
2018-11-22T16:50:39.642Z,3.00
2018-11-22T16:53:08.689Z,3.00
2018-11-22T16:55:38.015Z,3.00
2018-11-22T16:58:07.351Z,3.00
2018-11-22T17:00:37.380Z,3.00
2018-11-22T17:03:09.019Z,3.00
2018-11-22T17:05:38.238Z,3.00
2018-11-22T17:08:07.934Z,3.00
2018-11-22T17:10:37.512Z,2.90
2018-11-22T17:13:06.729Z,3.00
2018-11-22T17:15:37.160Z,2.90
2018-11-22T17:18:07.069Z,2.90
2018-11-22T17:20:36.226Z,3.00
2018-11-22T17:23:06.320Z,3.00
2018-11-22T17:25:36.035Z,3.00
2018-11-22T17:28:06.921Z,3.10
2018-11-22T17:30:39.542Z,3.10
2018-11-22T17:33:10.068Z,3.20
2018-11-22T17:35:39.841Z,3.10
2018-11-22T17:38:09.782Z,3.10
2018-11-22T17:40:40.237Z,3.10
2018-11-22T17:43:09.250Z,3.10
2018-11-22T17:45:42.613Z,3.10
2018-11-22T17:48:12.223Z,3.10
2018-11-22T17:50:42.892Z,3.10
2018-11-22T17:53:12.528Z,3.10
2018-11-22T17:55:41.540Z,3.00
2018-11-22T17:58:11.255Z,3.00
2018-11-22T18:00:45.701Z,3.10
2018-11-22T18:03:15.903Z,3.00
2018-11-22T18:05:44.842Z,3.00
2018-11-22T18:08:13.926Z,3.00
2018-11-22T18:10:43.277Z,3.00
2018-11-22T18:13:12.234Z,3.00
2018-11-22T18:15:57.034Z,3.00
2018-11-22T18:18:26.702Z,3.00
2018-11-22T18:20:56.107Z,3.00
2018-11-22T18:23:25.059Z,3.00
2018-11-22T18:25:54.027Z,3.00
2018-11-22T18:28:22.971Z,3.00
2018-11-22T18:30:51.921Z,3.00
2018-11-22T18:33:22.709Z,3.00
2018-11-22T18:35:51.672Z,3.00
2018-11-22T18:38:21.043Z,3.00
2018-11-22T18:40:50.060Z,3.00
2018-11-22T18:43:19.032Z,3.00
2018-11-22T18:45:49.091Z,3.00
2018-11-22T18:48:19.707Z,3.00
2018-11-22T18:50:49.145Z,3.00
2018-11-22T18:53:18.134Z,3.00
2018-11-22T18:55:48.869Z,3.00
2018-11-22T18:58:17.773Z,3.00
2018-11-22T19:00:47.260Z,2.90
2018-11-22T19:03:18.846Z,2.90
2018-11-22T19:05:47.798Z,2.80
2018-11-22T19:08:16.953Z,2.70
2018-11-22T19:10:45.949Z,2.60
2018-11-22T19:13:16.330Z,2.50
2018-11-22T19:15:46.680Z,2.50
2018-11-22T19:18:16.393Z,2.40
2018-11-22T19:20:46.404Z,2.40
2018-11-22T19:23:16.948Z,2.30
2018-11-22T19:25:46.956Z,2.30
2018-11-22T19:28:16.298Z,2.40
2018-11-22T19:30:46.567Z,2.50
2018-11-22T19:33:16.953Z,2.60
2018-11-22T19:35:47.908Z,2.60
2018-11-22T19:38:18.518Z,2.70
2018-11-22T19:40:47.830Z,2.80
2018-11-22T19:43:17.200Z,2.90
2018-11-22T19:45:47.805Z,2.90
2018-11-22T19:48:16.889Z,3.00
2018-11-22T19:50:45.825Z,3.00
2018-11-22T19:53:15.727Z,3.00
2018-11-22T19:55:44.780Z,3.20
2018-11-22T19:58:15.043Z,3.30
2018-11-22T20:00:44.733Z,3.20
2018-11-22T20:03:13.751Z,3.20
2018-11-22T20:05:44.241Z,3.20
2018-11-22T20:08:15.204Z,3.10
2018-11-22T20:10:45.944Z,3.10
2018-11-22T20:13:14.848Z,3.00
2018-11-22T20:15:44.362Z,3.00
2018-11-22T20:18:13.667Z,3.00
2018-11-22T20:20:43.041Z,2.90
2018-11-22T20:23:11.671Z,2.90
2018-11-22T20:25:40.759Z,2.90
2018-11-22T20:28:12.270Z,2.90
2018-11-22T20:30:42.959Z,2.90
2018-11-22T20:33:12.617Z,2.90
2018-11-22T20:35:41.634Z,2.80
2018-11-22T20:38:10.643Z,2.80
2018-11-22T20:40:39.577Z,2.70
2018-11-22T20:43:09.462Z,2.70
2018-11-22T20:45:41.037Z,2.70
2018-11-22T20:48:07.397Z,2.80
2018-11-22T20:50:37.394Z,2.70
2018-11-22T20:53:06.694Z,2.60
2018-11-22T20:55:39.581Z,2.60
2018-11-22T20:58:08.809Z,2.60
2018-11-22T21:00:39.911Z,2.60
2018-11-22T21:03:08.889Z,2.60
2018-11-22T21:05:37.878Z,2.50
2018-11-22T21:08:06.858Z,2.60
2018-11-22T21:10:35.935Z,2.60
2018-11-22T21:13:05.225Z,2.60
2018-11-22T21:15:35.041Z,2.60
2018-11-22T21:18:05.304Z,2.60
2018-11-22T21:20:37.303Z,2.60
2018-11-22T21:23:06.506Z,2.60
2018-11-22T21:25:35.553Z,2.60
2018-11-22T21:28:05.363Z,2.60
2018-11-22T21:30:35.811Z,2.60
2018-11-22T21:33:05.079Z,2.70
2018-11-22T21:35:34.472Z,2.70
2018-11-22T21:38:06.067Z,2.60
2018-11-22T21:40:35.672Z,2.60
2018-11-22T21:43:05.350Z,2.50
2018-11-22T21:45:35.014Z,2.50
2018-11-22T21:48:04.308Z,2.40
2018-11-22T21:50:33.295Z,2.20
2018-11-22T21:53:02.415Z,2.00
2018-11-22T21:55:32.234Z,1.90
2018-11-22T21:58:01.988Z,1.70
2018-11-22T22:00:35.889Z,1.60
2018-11-22T22:03:06.740Z,1.50
2018-11-22T22:05:36.072Z,1.40
2018-11-22T22:08:05.376Z,1.30
2018-11-22T22:10:34.367Z,1.20
2018-11-22T22:13:03.338Z,1.10
2018-11-22T22:15:33.474Z,1.00
2018-11-22T22:18:02.855Z,0.90
2018-11-22T22:20:33.339Z,0.80
2018-11-22T22:23:02.311Z,0.70
2018-11-22T22:25:31.577Z,0.60
2018-11-22T22:28:01.358Z,0.50
2018-11-22T22:30:31.918Z,0.50
2018-11-22T22:33:02.486Z,0.60
2018-11-22T22:35:31.449Z,0.50
2018-11-22T22:38:00.505Z,0.40
2018-11-22T22:40:30.524Z,0.40
2018-11-22T22:42:59.852Z,0.40
2018-11-22T22:45:30.019Z,0.40
2018-11-22T22:47:58.960Z,0.30
2018-11-22T22:50:28.806Z,0.20
2018-11-22T22:52:58.869Z,0.10
2018-11-22T22:55:28.252Z,0.10
2018-11-22T22:57:57.229Z,0.00
2018-11-22T23:00:32.827Z,0.00
2018-11-22T23:03:06.302Z,0.00
2018-11-22T23:05:36.538Z,0.00
2018-11-22T23:08:05.846Z,-0.10
2018-11-22T23:10:34.850Z,-0.10
2018-11-22T23:13:03.899Z,-0.10
2018-11-22T23:15:33.268Z,-0.20
2018-11-22T23:18:02.400Z,-0.20
2018-11-22T23:20:32.985Z,-0.30
2018-11-22T23:23:03.070Z,-0.40
2018-11-22T23:25:32.055Z,-0.50
2018-11-22T23:28:01.877Z,-0.60
2018-11-22T23:30:33.225Z,-0.60
2018-11-22T23:33:03.750Z,-0.70
2018-11-22T23:35:32.734Z,-0.80
2018-11-22T23:38:02.274Z,-0.90
2018-11-22T23:40:32.178Z,-0.90
2018-11-22T23:43:01.274Z,-0.90
2018-11-22T23:45:31.274Z,-0.80
2018-11-22T23:48:00.535Z,-0.70
2018-11-22T23:50:30.824Z,-0.70
2018-11-22T23:53:01.447Z,-0.70
2018-11-22T23:55:30.601Z,-0.60
2018-11-22T23:57:59.660Z,-0.50
